| time (UTC) | temp F | wind direction | speed MPH | gust MPH | rain 1hr in | rain 24hr in | rain mn in | humidity % | barometer mb |
| 20260502122146 | 63 | 59 | 3.0 | 6.0 | 0.00 | 0.00 | 0.00 | 100 | |
| 20260502120647 | 64 | 47 | 2.0 | 8.0 | 0.00 | 0.00 | 0.00 | 100 | |
| 20260502115145 | 63 | 77 | 4.0 | 8.0 | 0.00 | 0.00 | 0.00 | 100 | |
| 20260502113646 | 63 | 293 | 1.0 | 8.0 | 0.00 | 0.00 | 0.00 | 100 | |
| 20260502112145 | 63 | 289 | 0.0 | 6.0 | 0.00 | 0.00 | 0.00 | 100 | |
| 20260502110653 | 62 | 306 | 0.0 | 7.0 | 0.00 | 0.00 | 0.00 | 100 | |
| 20260502110645 | 62 | 306 | 0.0 | 7.0 | 0.00 | 0.00 | 0.00 | 100 | |
| 20260502105145 | 61 | 345 | 5.0 | 10.0 | 0.00 | 0.00 | 0.00 | 100 | |
| 20260502103645 | 62 | 87 | 6.0 | 12.0 | 0.00 | 0.00 | 0.00 | 100 | |
| 20260502102146 | 62 | 87 | 2.0 | 10.0 | 0.00 | 0.00 | 0.00 | 100 | |
| 20260502100646 | 62 | 345 | 1.0 | 6.0 | 0.00 | 0.00 | 0.00 | 100 | |
| 20260502090646 | 59 | 2 | 3.0 | 8.0 | 0.00 | 0.00 | 0.00 | 100 | |
| 20260502070646 | 55 | 312 | 3.0 | 9.0 | 0.00 | 0.00 | 0.00 | 100 | |
| 20260502065146 | 55 | 279 | 3.0 | 9.0 | 0.00 | 0.00 | 0.00 | 100 | |
| 20260502063646 | 54 | 305 | 8.0 | 10.0 | 0.00 | 0.00 | 0.00 | 100 | |
| 20260502062146 | 53 | 307 | 5.0 | 8.0 | 0.00 | 0.00 | 0.00 | 100 | |
| 20260502060646 | 53 | 296 | 4.0 | 9.0 | 0.00 | 0.00 | 0.00 | 100 | |
| 20260502055146 | 52 | 305 | 6.0 | 10.0 | 0.00 | 0.00 | 0.00 | 100 | |
| 20260502053646 | 52 | 278 | 7.0 | 9.0 | 0.00 | 0.00 | 0.00 | 100 | |
| 20260502052146 | 51 | 298 | 6.0 | 10.0 | 0.00 | 0.00 | 0.00 | 100 | |
| 20260502050646 | 50 | 296 | 7.0 | 10.0 | 0.00 | 0.00 | 0.00 | 100 | |
| 20260502045147 | 50 | 270 | 9.0 | 12.0 | 0.00 | 0.00 | 0.00 | 100 | |
| 20260502043646 | 49 | 313 | 2.0 | 9.0 | 0.00 | 0.00 | 0.00 | 100 | |
| 20260502042147 | 49 | 324 | 5.0 | 10.0 | 0.00 | 0.00 | 0.00 | 100 | |
| 20260502040646 | 49 | 289 | 6.0 | 11.0 | 0.00 | 0.00 | 0.00 | 100 | |
| 20260502035147 | 49 | 298 | 8.0 | 10.0 | 0.00 | 0.00 | 0.00 | 100 |